createdAt,value
2022-08-12T00:02:05.170Z,8.82
2022-08-12T00:04:52.788Z,8.40
2022-08-12T00:07:38.989Z,8.90
2022-08-12T00:10:24.932Z,8.65
2022-08-12T00:13:13.470Z,8.43
2022-08-12T00:16:03.893Z,8.93
2022-08-12T00:18:49.733Z,8.10
2022-08-12T00:21:38.126Z,8.50
2022-08-12T00:24:25.888Z,8.45
2022-08-12T00:27:12.178Z,8.32
2022-08-12T00:29:58.424Z,8.07
2022-08-12T00:32:54.719Z,8.50
2022-08-12T00:35:42.443Z,8.27
2022-08-12T00:38:29.669Z,8.68
2022-08-12T00:41:16.978Z,6.97
2022-08-12T00:43:46.073Z,6.90
2022-08-12T00:46:31.405Z,8.18
2022-08-12T00:48:59.677Z,7.55
2022-08-12T00:51:48.446Z,7.78
2022-08-12T00:54:17.026Z,7.03
2022-08-12T00:56:49.163Z,6.65
2022-08-12T00:59:17.262Z,8.48
2022-08-12T01:02:10.675Z,7.50
2022-08-12T01:04:53.991Z,9.20
2022-08-12T01:07:45.340Z,8.45
2022-08-12T01:10:32.802Z,9.38
2022-08-12T01:13:18.593Z,9.27
2022-08-12T01:15:55.134Z,9.25
2022-08-12T01:18:28.133Z,9.13
2022-08-12T01:21:17.642Z,9.48
2022-08-12T01:24:30.084Z,10.50
2022-08-12T01:26:58.391Z,10.13
2022-08-12T01:29:33.211Z,10.45
2022-08-12T01:32:05.455Z,9.98
2022-08-12T01:34:38.838Z,10.90
2022-08-12T01:37:08.810Z,10.43
2022-08-12T01:40:35.259Z,10.68
2022-08-12T01:42:52.038Z,11.82
2022-08-12T01:45:24.705Z,12.00
2022-08-12T01:48:33.554Z,11.88
2022-08-12T01:52:14.636Z,11.48
2022-08-12T01:54:14.082Z,10.82
2022-08-12T01:56:49.909Z,10.75
2022-08-12T01:59:59.116Z,12.13
2022-08-12T02:02:47.616Z,11.10
2022-08-12T02:05:49.204Z,10.55
2022-08-12T02:08:50.094Z,11.20
2022-08-12T02:11:26.330Z,11.63
2022-08-12T02:13:56.116Z,12.43
2022-08-12T02:16:41.536Z,11.38
2022-08-12T02:19:46.918Z,10.57
2022-08-12T02:22:26.604Z,10.15
2022-08-12T02:25:01.292Z,10.48
2022-08-12T02:27:34.131Z,9.75
2022-08-12T02:30:01.216Z,9.57
2022-08-12T02:32:28.221Z,8.93
2022-08-12T02:34:57.135Z,8.45
2022-08-12T02:37:26.813Z,8.73
2022-08-12T02:39:57.947Z,9.05
2022-08-12T02:42:29.023Z,9.43
2022-08-12T02:45:01.076Z,8.70
2022-08-12T02:47:59.230Z,8.52
2022-08-12T02:50:22.825Z,8.27
2022-08-12T02:52:52.330Z,11.88
2022-08-12T02:55:28.985Z,7.65
2022-08-12T02:58:12.062Z,11.23
2022-08-12T03:00:43.344Z,8.27
2022-08-12T03:03:13.226Z,8.07
2022-08-12T03:06:00.972Z,7.72
2022-08-12T03:08:33.242Z,8.52
2022-08-12T03:11:12.073Z,8.10
2022-08-12T03:13:45.991Z,8.38
2022-08-12T03:16:14.523Z,10.77
2022-08-12T03:18:46.047Z,8.25
2022-08-12T03:21:17.036Z,10.68
2022-08-12T03:23:46.047Z,8.93
2022-08-12T03:26:14.755Z,8.38
2022-08-12T03:28:51.831Z,8.57
2022-08-12T03:31:32.254Z,9.27
2022-08-12T03:34:12.658Z,8.65
2022-08-12T03:36:42.098Z,8.82
2022-08-12T03:39:17.850Z,8.98
2022-08-12T03:42:13.794Z,9.00
2022-08-12T03:45:24.108Z,8.80
2022-08-12T03:48:19.386Z,9.13
2022-08-12T03:51:06.925Z,9.00
2022-08-12T03:53:52.751Z,9.82
2022-08-12T03:56:38.982Z,8.60
2022-08-12T03:59:26.116Z,9.05
2022-08-12T04:01:57.963Z,8.90
2022-08-12T04:04:24.951Z,10.38
2022-08-12T04:06:52.671Z,9.20
2022-08-12T04:09:23.243Z,8.97
2022-08-12T04:12:08.909Z,9.10
2022-08-12T04:14:37.737Z,12.07
2022-08-12T04:17:05.105Z,8.85
2022-08-12T04:19:32.831Z,9.48
2022-08-12T04:22:03.504Z,8.93
2022-08-12T04:24:36.055Z,9.68
2022-08-12T04:27:09.020Z,9.52
2022-08-12T04:30:16.912Z,10.38
2022-08-12T04:32:26.635Z,11.75
2022-08-12T04:34:54.279Z,9.50
2022-08-12T04:37:21.154Z,10.80
2022-08-12T04:39:48.765Z,9.93
2022-08-12T04:42:16.219Z,10.05
2022-08-12T04:44:44.435Z,9.88
2022-08-12T04:47:14.292Z,10.52
2022-08-12T04:49:41.357Z,10.90
2022-08-12T04:52:09.119Z,10.27
2022-08-12T04:54:36.131Z,9.80
2022-08-12T04:57:04.996Z,10.98
2022-08-12T04:59:47.750Z,10.00
2022-08-12T05:02:21.613Z,9.93
2022-08-12T05:04:51.704Z,9.80
2022-08-12T05:07:20.535Z,9.52
2022-08-12T05:10:00.066Z,10.02
2022-08-12T05:12:39.853Z,10.77
2022-08-12T05:15:19.484Z,9.10
2022-08-12T05:17:55.573Z,9.48
2022-08-12T05:20:23.266Z,10.25
2022-08-12T05:22:54.745Z,10.32
2022-08-12T05:25:25.328Z,9.65
2022-08-12T05:27:58.806Z,10.23
2022-08-12T05:30:33.506Z,9.23
2022-08-12T05:33:05.266Z,9.63
2022-08-12T05:35:40.123Z,9.75
2022-08-12T05:38:26.574Z,9.70
2022-08-12T05:40:53.636Z,10.80
2022-08-12T05:43:20.879Z,9.80
2022-08-12T05:45:48.252Z,10.82
2022-08-12T05:48:15.835Z,10.40
2022-08-12T05:50:44.874Z,10.07
2022-08-12T05:53:13.433Z,10.55
2022-08-12T05:55:40.838Z,10.13
2022-08-12T05:58:10.409Z,9.93
2022-08-12T06:00:38.050Z,9.43
2022-08-12T06:03:06.112Z,7.55
2022-08-12T06:05:54.534Z,7.75
2022-08-12T06:08:23.484Z,7.53
2022-08-12T06:10:50.757Z,9.90
2022-08-12T06:13:25.765Z,8.63
2022-08-12T06:15:55.979Z,10.13
2022-08-12T06:18:27.775Z,7.32
2022-08-12T06:20:59.086Z,7.03
2022-08-12T06:23:30.213Z,8.65
2022-08-12T06:25:58.872Z,6.25
2022-08-12T06:28:25.987Z,7.43
2022-08-12T06:31:15.314Z,6.30
2022-08-12T06:33:57.858Z,7.35
2022-08-12T06:36:32.605Z,6.15
2022-08-12T06:39:01.031Z,5.85
2022-08-12T06:42:04.922Z,5.53
2022-08-12T06:44:33.432Z,7.60
2022-08-12T06:47:00.493Z,7.40
2022-08-12T06:49:35.655Z,7.13
2022-08-12T06:52:04.483Z,8.85
2022-08-12T06:54:33.248Z,7.90
2022-08-12T06:57:04.797Z,8.38
2022-08-12T06:59:32.615Z,6.22
2022-08-12T07:02:00.224Z,6.05
2022-08-12T07:04:42.981Z,9.27
2022-08-12T07:07:10.637Z,7.18
2022-08-12T07:10:06.706Z,9.65
2022-08-12T07:12:28.319Z,6.72
2022-08-12T07:14:57.835Z,6.95
2022-08-12T07:17:25.531Z,11.20
2022-08-12T07:19:53.678Z,7.30
2022-08-12T07:22:23.324Z,10.25
2022-08-12T07:25:10.249Z,8.15
2022-08-12T07:27:42.344Z,8.45
2022-08-12T07:30:10.506Z,7.90
2022-08-12T07:32:37.328Z,8.23
2022-08-12T07:35:04.864Z,8.85
2022-08-12T07:37:32.543Z,8.95
2022-08-12T07:40:01.047Z,9.13
2022-08-12T07:42:29.512Z,9.10
2022-08-12T07:44:56.663Z,9.10
2022-08-12T07:47:24.585Z,9.05
2022-08-12T07:50:03.573Z,8.77
2022-08-12T07:52:34.305Z,9.50
2022-08-12T07:55:01.907Z,9.80
2022-08-12T07:57:28.798Z,9.73
2022-08-12T07:59:56.134Z,9.57
2022-08-12T08:02:26.512Z,10.93
2022-08-12T08:04:57.424Z,10.20
2022-08-12T08:07:30.531Z,10.45
2022-08-12T08:10:00.155Z,10.65
2022-08-12T08:12:47.246Z,11.32
2022-08-12T08:15:15.668Z,12.70
2022-08-12T08:18:04.225Z,12.57
2022-08-12T08:20:43.181Z,13.48
2022-08-12T08:23:13.365Z,14.05
2022-08-12T08:25:40.689Z,15.50
2022-08-12T08:28:13.389Z,14.48
2022-08-12T08:30:44.022Z,15.25
2022-08-12T08:33:23.741Z,15.68
2022-08-12T08:36:00.854Z,15.88
2022-08-12T08:38:33.314Z,15.02
2022-08-12T08:42:15.825Z,15.10
2022-08-12T08:44:11.462Z,16.65
2022-08-12T08:46:39.945Z,15.70
2022-08-12T08:49:07.308Z,21.58
2022-08-12T08:51:34.641Z,28.70
2022-08-12T08:54:01.545Z,19.58
2022-08-12T08:56:31.160Z,21.25
2022-08-12T08:58:58.353Z,42.55
2022-08-12T09:01:26.527Z,16.38
2022-08-12T09:05:07.459Z,15.48
2022-08-12T09:07:00.226Z,22.83
2022-08-12T09:10:02.286Z,18.10
2022-08-12T09:15:36.965Z,18.00
2022-08-12T09:18:09.059Z,16.52
2022-08-12T09:20:37.313Z,16.02
2022-08-12T09:23:07.753Z,16.85
2022-08-12T09:25:35.591Z,15.85
2022-08-12T09:28:05.153Z,15.55
2022-08-12T09:30:41.236Z,15.18
2022-08-12T09:33:18.823Z,15.45
2022-08-12T09:36:03.359Z,15.07
2022-08-12T09:38:35.157Z,14.85
2022-08-12T09:42:08.637Z,14.48
2022-08-12T09:44:38.218Z,15.02
2022-08-12T09:46:56.062Z,14.80
2022-08-12T09:49:26.758Z,14.48
2022-08-12T09:51:55.827Z,14.45
2022-08-12T09:54:33.026Z,15.07
2022-08-12T09:58:44.598Z,15.63
2022-08-12T10:00:13.703Z,15.65
2022-08-12T10:03:05.794Z,14.90
2022-08-12T10:06:19.604Z,15.25
2022-08-12T10:08:30.449Z,15.18
2022-08-12T10:11:20.641Z,13.35
2022-08-12T10:13:50.024Z,13.77
2022-08-12T10:16:23.158Z,14.02
2022-08-12T10:18:57.382Z,15.07
2022-08-12T10:21:39.729Z,13.90
2022-08-12T10:24:20.019Z,13.95
2022-08-12T10:27:06.614Z,13.95
2022-08-12T10:30:03.875Z,13.63
2022-08-12T10:32:44.217Z,13.45
2022-08-12T10:35:14.407Z,13.23
2022-08-12T10:38:38.492Z,13.98
2022-08-12T10:40:33.399Z,12.63
2022-08-12T10:43:20.175Z,12.68
2022-08-12T10:45:52.305Z,12.85
2022-08-12T10:48:33.616Z,13.07
2022-08-12T10:51:51.387Z,13.07
2022-08-12T10:54:00.416Z,13.23
2022-08-12T10:56:27.893Z,13.70
2022-08-12T10:59:02.256Z,12.75
2022-08-12T11:04:16.822Z,12.68
2022-08-12T11:04:35.553Z,12.30
2022-08-12T11:08:35.125Z,12.77
2022-08-12T11:10:00.508Z,12.38
2022-08-12T11:12:55.987Z,12.05
2022-08-12T11:15:32.972Z,12.57
2022-08-12T11:18:11.685Z,13.57
2022-08-12T11:20:44.540Z,12.60
2022-08-12T11:23:36.230Z,12.98
2022-08-12T11:26:01.412Z,12.80
2022-08-12T11:28:34.434Z,13.25
2022-08-12T11:31:04.116Z,12.85
2022-08-12T11:34:05.525Z,12.60
2022-08-12T11:36:18.268Z,13.00
2022-08-12T11:38:51.314Z,12.95
2022-08-12T11:41:20.719Z,13.25
2022-08-12T11:43:58.603Z,13.52
2022-08-12T11:46:26.095Z,13.02
2022-08-12T11:48:53.080Z,12.82
2022-08-12T11:51:21.065Z,13.23
2022-08-12T11:53:57.611Z,12.80
2022-08-12T11:56:38.582Z,13.10
2022-08-12T12:02:01.388Z,13.32
2022-08-12T12:04:31.622Z,13.23
2022-08-12T12:07:07.535Z,22.27
2022-08-12T12:09:52.978Z,13.00
2022-08-12T12:12:24.967Z,13.73
2022-08-12T12:14:54.237Z,14.00
2022-08-12T12:17:26.698Z,13.25
2022-08-12T12:20:10.566Z,12.90
2022-08-12T12:22:40.806Z,13.05
2022-08-12T12:25:13.499Z,20.55
2022-08-12T12:28:04.155Z,14.05
2022-08-12T12:30:32.500Z,12.82
2022-08-12T12:32:59.542Z,23.25
2022-08-12T12:36:18.581Z,15.52
2022-08-12T12:38:14.450Z,12.38
2022-08-12T12:40:44.544Z,12.20
2022-08-12T12:43:13.778Z,13.15
2022-08-12T12:45:44.631Z,13.23
2022-08-12T12:48:15.478Z,13.25
2022-08-12T12:50:51.453Z,13.18
2022-08-12T12:54:05.320Z,12.23
2022-08-12T12:56:34.118Z,12.52
2022-08-12T12:59:03.867Z,12.57
2022-08-12T13:01:32.016Z,12.55
2022-08-12T13:04:02.746Z,12.35
2022-08-12T13:06:31.503Z,12.90
2022-08-12T13:09:02.796Z,13.32
2022-08-12T13:11:41.884Z,12.93
2022-08-12T13:14:29.638Z,12.27
2022-08-12T13:17:02.647Z,12.75
2022-08-12T13:19:37.771Z,13.18
2022-08-12T13:22:20.306Z,12.30
2022-08-12T13:24:55.598Z,13.00
2022-08-12T13:27:35.348Z,13.38
2022-08-12T13:30:11.079Z,11.88
2022-08-12T13:32:41.079Z,12.32
2022-08-12T13:35:19.925Z,13.00
2022-08-12T13:37:57.825Z,12.98
2022-08-12T13:40:26.958Z,12.30
2022-08-12T13:42:57.897Z,12.48
2022-08-12T13:45:26.237Z,12.90
2022-08-12T13:47:56.977Z,11.93
2022-08-12T13:50:36.380Z,12.50
2022-08-12T13:53:23.926Z,12.00
2022-08-12T13:55:59.758Z,12.00
2022-08-12T13:58:30.779Z,12.57
2022-08-12T14:01:04.672Z,12.13
2022-08-12T14:03:51.441Z,12.50
2022-08-12T14:06:18.937Z,13.40
2022-08-12T14:08:49.560Z,12.15
2022-08-12T14:11:18.486Z,12.52
2022-08-12T14:14:05.908Z,12.20
2022-08-12T14:16:46.862Z,12.07
2022-08-12T14:19:22.564Z,12.10
2022-08-12T14:22:00.725Z,12.00
2022-08-12T14:24:40.118Z,12.55
2022-08-12T14:27:10.396Z,12.40
2022-08-12T14:30:06.086Z,11.95
2022-08-12T14:32:35.008Z,12.10
2022-08-12T14:35:09.920Z,11.93
2022-08-12T14:37:57.957Z,11.52
2022-08-12T14:40:28.623Z,11.77
2022-08-12T14:42:57.452Z,11.88
2022-08-12T14:45:44.430Z,11.52
2022-08-12T14:48:13.757Z,12.13
2022-08-12T14:51:09.705Z,11.32
2022-08-12T14:57:05.833Z,11.95
2022-08-12T14:59:26.377Z,11.15
2022-08-12T15:01:54.754Z,12.55
2022-08-12T15:04:24.701Z,12.23
2022-08-12T15:06:54.993Z,11.70
2022-08-12T15:09:29.248Z,10.98
2022-08-12T15:12:03.979Z,12.10
2022-08-12T15:14:32.140Z,11.57
2022-08-12T15:17:02.707Z,11.38
2022-08-12T15:20:32.335Z,11.85
2022-08-12T15:22:37.300Z,11.55
2022-08-12T15:25:07.239Z,11.35
2022-08-12T15:28:04.260Z,11.68
2022-08-12T15:30:31.419Z,11.18
2022-08-12T15:32:59.063Z,11.32
2022-08-12T15:35:31.468Z,10.73
2022-08-12T15:38:08.582Z,10.50
2022-08-12T15:40:46.759Z,10.95
2022-08-12T15:43:51.643Z,10.75
2022-08-12T15:46:06.409Z,11.05
2022-08-12T15:48:34.142Z,11.10
2022-08-12T15:51:03.192Z,11.68
2022-08-12T15:53:53.282Z,10.30
2022-08-12T15:56:29.113Z,10.63
2022-08-12T15:58:59.043Z,10.68
2022-08-12T16:01:35.129Z,10.48
2022-08-12T16:04:05.374Z,11.02
2022-08-12T16:09:56.132Z,10.85
2022-08-12T16:12:12.144Z,10.38
2022-08-12T16:14:39.689Z,10.20
2022-08-12T16:17:08.817Z,10.00
2022-08-12T16:20:02.992Z,11.20
2022-08-12T16:22:24.485Z,10.32
2022-08-12T16:24:54.121Z,10.13
2022-08-12T16:27:25.049Z,10.20
2022-08-12T16:29:57.285Z,9.45
2022-08-12T16:32:31.909Z,10.48
2022-08-12T16:35:01.440Z,9.30
2022-08-12T16:38:04.845Z,10.20
2022-08-12T16:40:18.825Z,9.98
2022-08-12T16:42:53.967Z,9.75
2022-08-12T16:46:07.862Z,10.88
2022-08-12T16:48:34.910Z,10.60
2022-08-12T16:51:06.027Z,10.50
2022-08-12T16:53:44.418Z,10.70
2022-08-12T16:56:17.215Z,10.85
2022-08-12T16:58:44.601Z,10.63
2022-08-12T17:01:15.763Z,11.07
2022-08-12T17:03:51.806Z,10.88
2022-08-12T17:06:27.434Z,10.40
2022-08-12T17:09:02.864Z,10.18
2022-08-12T17:11:33.457Z,10.60
2022-08-12T17:14:01.641Z,9.60
2022-08-12T17:16:30.003Z,10.57
2022-08-12T17:18:59.430Z,10.00
2022-08-12T17:21:41.698Z,9.73
2022-08-12T17:24:21.241Z,9.82
2022-08-12T17:26:53.800Z,9.35
2022-08-12T17:29:32.227Z,10.02
2022-08-12T17:32:10.168Z,9.75
2022-08-12T17:34:56.243Z,9.43
2022-08-12T17:37:23.071Z,10.30
2022-08-12T17:40:12.245Z,9.82
2022-08-12T17:42:47.916Z,9.52
2022-08-12T17:45:20.037Z,10.20
2022-08-12T17:48:04.979Z,9.05
2022-08-12T17:50:42.654Z,10.10
2022-08-12T17:53:10.237Z,9.32
2022-08-12T17:55:47.245Z,9.70
2022-08-12T17:58:35.828Z,9.38
2022-08-12T18:01:05.985Z,8.90
2022-08-12T18:03:57.561Z,9.05
2022-08-12T18:06:28.283Z,9.35
2022-08-12T18:08:59.134Z,8.70
2022-08-12T18:12:04.382Z,9.50
2022-08-12T18:14:37.219Z,9.60
2022-08-12T18:17:08.862Z,9.68
2022-08-12T18:20:05.843Z,9.15
2022-08-12T18:22:30.843Z,9.55
2022-08-12T18:25:04.079Z,9.45
2022-08-12T18:27:44.685Z,10.13
2022-08-12T18:30:20.583Z,9.75
2022-08-12T18:33:03.462Z,9.02
2022-08-12T18:35:47.771Z,9.20
2022-08-12T18:38:24.669Z,10.23
2022-08-12T18:41:11.652Z,9.82
2022-08-12T18:44:00.760Z,10.32
2022-08-12T18:46:56.165Z,9.02
2022-08-12T18:49:28.590Z,9.07
2022-08-12T18:52:04.720Z,9.25
2022-08-12T18:54:35.158Z,9.10
2022-08-12T18:57:16.322Z,9.93
2022-08-12T19:00:01.925Z,9.68
2022-08-12T19:02:33.361Z,9.98
2022-08-12T19:05:10.744Z,9.63
2022-08-12T19:08:01.304Z,10.02
2022-08-12T19:10:31.813Z,10.20
2022-08-12T19:13:23.434Z,10.50
2022-08-12T19:15:57.968Z,9.65
2022-08-12T19:18:30.907Z,10.40
2022-08-12T19:21:12.132Z,10.07
2022-08-12T19:23:43.925Z,10.40
2022-08-12T19:26:12.714Z,10.73
2022-08-12T19:28:41.140Z,11.02
2022-08-12T19:31:56.063Z,10.70
2022-08-12T19:37:22.906Z,10.25
2022-08-12T19:40:10.597Z,10.02
2022-08-12T19:42:57.648Z,9.73
2022-08-12T19:45:43.543Z,10.20
2022-08-12T19:48:20.483Z,10.65
2022-08-12T19:50:50.538Z,9.45
2022-08-12T19:53:23.873Z,9.30
2022-08-12T19:55:53.291Z,9.82
2022-08-12T19:58:21.623Z,9.52
2022-08-12T20:00:56.295Z,8.80
2022-08-12T20:03:37.913Z,8.82
2022-08-12T20:06:15.506Z,8.95
2022-08-12T20:08:56.765Z,9.32
2022-08-12T20:12:11.775Z,9.57
2022-08-12T20:14:19.841Z,10.18
2022-08-12T20:16:54.368Z,10.38
2022-08-12T20:19:28.593Z,9.32
2022-08-12T20:22:24.335Z,9.25
2022-08-12T20:25:01.060Z,10.30
2022-08-12T20:28:04.826Z,9.40
2022-08-12T20:30:20.648Z,9.15
2022-08-12T20:33:05.256Z,10.23
2022-08-12T20:36:06.289Z,10.60
2022-08-12T20:38:27.034Z,10.55
2022-08-12T20:40:55.928Z,10.40
2022-08-12T20:43:24.184Z,10.55
2022-08-12T20:45:57.613Z,10.55
2022-08-12T20:48:29.350Z,10.68
2022-08-12T20:51:04.007Z,10.05
2022-08-12T20:53:57.683Z,9.85
2022-08-12T20:56:30.229Z,10.65
2022-08-12T20:59:01.173Z,10.38
2022-08-12T21:01:36.596Z,9.55
2022-08-12T21:04:33.717Z,9.35
2022-08-12T21:07:08.610Z,9.20
2022-08-12T21:09:41.762Z,9.73
2022-08-12T21:12:28.159Z,9.90
2022-08-12T21:15:16.943Z,10.05
2022-08-12T21:18:08.733Z,9.55
2022-08-12T21:20:35.713Z,9.57
2022-08-12T21:23:05.775Z,8.55
2022-08-12T21:25:44.703Z,9.63
2022-08-12T21:28:13.398Z,10.32
2022-08-12T21:31:11.385Z,10.50
2022-08-12T21:33:58.610Z,11.23
2022-08-12T21:36:22.642Z,10.68
2022-08-12T21:39:01.901Z,10.43
2022-08-12T21:41:50.246Z,10.30
2022-08-12T21:44:24.494Z,9.80
2022-08-12T21:47:21.092Z,9.77
2022-08-12T21:50:06.574Z,9.77
2022-08-12T21:52:40.801Z,9.35
2022-08-12T21:55:18.234Z,9.18
2022-08-12T21:57:54.405Z,9.50
2022-08-12T22:00:33.467Z,9.65
2022-08-12T22:04:03.694Z,8.65
2022-08-12T22:06:30.611Z,9.48
2022-08-12T22:09:17.249Z,9.02
2022-08-12T22:11:56.521Z,8.85
2022-08-12T22:14:28.693Z,9.10
2022-08-12T22:16:57.247Z,9.68
2022-08-12T22:19:24.132Z,10.02
2022-08-12T22:21:54.116Z,9.98
2022-08-12T22:24:27.032Z,9.95
2022-08-12T22:27:18.167Z,9.73
2022-08-12T22:30:08.451Z,9.77
2022-08-12T22:32:47.424Z,8.77
2022-08-12T22:35:55.416Z,9.65
2022-08-12T22:38:23.996Z,9.82
2022-08-12T22:40:58.467Z,9.63
2022-08-12T22:44:00.148Z,9.93
2022-08-12T22:46:53.198Z,9.40
2022-08-12T22:49:48.758Z,10.18
2022-08-12T22:52:14.285Z,7.68
2022-08-12T22:54:58.034Z,7.90
2022-08-12T22:57:48.911Z,7.60
2022-08-12T23:00:23.899Z,9.60
2022-08-12T23:02:58.327Z,6.72
2022-08-12T23:05:56.943Z,7.10
2022-08-12T23:08:17.642Z,7.10
2022-08-12T23:10:46.481Z,6.97
2022-08-12T23:13:43.163Z,6.15
2022-08-12T23:16:27.978Z,6.20
2022-08-12T23:19:00.001Z,5.50
2022-08-12T23:22:04.437Z,7.28
2022-08-12T23:24:17.048Z,6.00
2022-08-12T23:27:03.950Z,6.43
2022-08-12T23:29:43.076Z,6.57
2022-08-12T23:32:13.510Z,6.50
2022-08-12T23:35:02.613Z,6.40
2022-08-12T23:37:47.609Z,6.07
2022-08-12T23:40:20.242Z,6.32
2022-08-12T23:42:49.525Z,8.40
2022-08-12T23:45:20.492Z,5.78
2022-08-12T23:48:00.886Z,5.93
2022-08-12T23:50:34.153Z,7.90
2022-08-12T23:53:06.586Z,6.20
2022-08-12T23:55:45.602Z,6.65
2022-08-12T23:58:21.509Z,6.88
